sensor_id;sensor_type;location;lat;lon;timestamp;P1;durP1;ratioP1;P2;durP2;ratioP2
37309;SDS011;23195;47.744;7.358;2023-12-29T06:57:24;4.60;;;4.00;;
37309;SDS011;23195;47.744;7.358;2023-12-29T06:59:50;6.40;;;4.20;;
37309;SDS011;23195;47.744;7.358;2023-12-29T07:02:19;5.33;;;4.00;;
37309;SDS011;23195;47.744;7.358;2023-12-29T07:04:48;5.10;;;4.47;;
37309;SDS011;23195;47.744;7.358;2023-12-29T07:07:19;6.10;;;4.10;;
37309;SDS011;23195;47.744;7.358;2023-12-29T07:09:45;5.33;;;4.00;;
37309;SDS011;23195;47.744;7.358;2023-12-29T07:12:13;4.17;;;3.50;;
37309;SDS011;23195;47.744;7.358;2023-12-29T07:14:42;4.90;;;3.70;;
37309;SDS011;23195;47.744;7.358;2023-12-29T07:17:11;4.23;;;3.60;;
37309;SDS011;23195;47.744;7.358;2023-12-29T07:19:37;3.90;;;3.57;;
37309;SDS011;23195;47.744;7.358;2023-12-29T07:22:05;4.13;;;3.50;;
37309;SDS011;23195;47.744;7.358;2023-12-29T07:24:34;3.83;;;3.00;;
37309;SDS011;23195;47.744;7.358;2023-12-29T07:27:06;4.20;;;3.50;;
37309;SDS011;23195;47.744;7.358;2023-12-29T07:29:33;3.70;;;3.20;;
37309;SDS011;23195;47.744;7.358;2023-12-29T07:31:59;4.50;;;3.40;;
37309;SDS011;23195;47.744;7.358;2023-12-29T07:34:34;3.97;;;3.20;;
37309;SDS011;23195;47.744;7.358;2023-12-29T07:37:09;4.20;;;3.10;;
37309;SDS011;23195;47.744;7.358;2023-12-29T07:39:43;3.40;;;3.10;;
37309;SDS011;23195;47.744;7.358;2023-12-29T07:42:12;3.50;;;2.97;;
37309;SDS011;23195;47.744;7.358;2023-12-29T07:44:39;4.67;;;3.20;;
37309;SDS011;23195;47.744;7.358;2023-12-29T07:47:07;5.20;;;3.30;;
37309;SDS011;23195;47.744;7.358;2023-12-29T07:49:36;3.80;;;3.30;;
37309;SDS011;23195;47.744;7.358;2023-12-29T07:52:05;3.47;;;3.10;;
37309;SDS011;23195;47.744;7.358;2023-12-29T07:54:33;3.53;;;3.23;;
37309;SDS011;23195;47.744;7.358;2023-12-29T07:56:59;3.27;;;2.97;;
37309;SDS011;23195;47.744;7.358;2023-12-29T07:59:27;3.10;;;2.80;;
37309;SDS011;23195;47.744;7.358;2023-12-29T08:01:53;3.13;;;2.80;;
37309;SDS011;23195;47.744;7.358;2023-12-29T08:04:22;3.03;;;2.73;;
37309;SDS011;23195;47.744;7.358;2023-12-29T08:06:48;4.07;;;2.93;;
37309;SDS011;23195;47.744;7.358;2023-12-29T08:09:14;3.83;;;2.67;;
37309;SDS011;23195;47.744;7.358;2023-12-29T08:11:43;3.37;;;2.70;;
37309;SDS011;23195;47.744;7.358;2023-12-29T08:14:09;2.73;;;2.53;;
37309;SDS011;23195;47.744;7.358;2023-12-29T08:16:38;3.63;;;2.50;;
37309;SDS011;23195;47.744;7.358;2023-12-29T08:19:09;3.57;;;2.77;;
37309;SDS011;23195;47.744;7.358;2023-12-29T08:21:36;3.67;;;3.13;;
37309;SDS011;23195;47.744;7.358;2023-12-29T08:24:02;4.10;;;3.07;;
37309;SDS011;23195;47.744;7.358;2023-12-29T08:26:28;3.80;;;3.00;;
37309;SDS011;23195;47.744;7.358;2023-12-29T08:28:56;4.27;;;2.87;;
37309;SDS011;23195;47.744;7.358;2023-12-29T08:31:22;3.30;;;3.00;;
37309;SDS011;23195;47.744;7.358;2023-12-29T08:33:57;3.90;;;2.73;;
37309;SDS011;23195;47.744;7.358;2023-12-29T08:36:26;5.53;;;2.93;;
37309;SDS011;23195;47.744;7.358;2023-12-29T08:38:55;3.37;;;2.90;;
37309;SDS011;23195;47.744;7.358;2023-12-29T08:41:22;4.03;;;3.00;;
37309;SDS011;23195;47.744;7.358;2023-12-29T08:43:54;4.17;;;3.30;;
37309;SDS011;23195;47.744;7.358;2023-12-29T08:46:20;3.73;;;3.10;;
37309;SDS011;23195;47.744;7.358;2023-12-29T08:48:46;3.47;;;2.77;;
37309;SDS011;23195;47.744;7.358;2023-12-29T08:51:14;4.10;;;3.30;;
37309;SDS011;23195;47.744;7.358;2023-12-29T08:53:40;4.83;;;2.73;;
37309;SDS011;23195;47.744;7.358;2023-12-29T08:56:09;2.80;;;2.50;;
37309;SDS011;23195;47.744;7.358;2023-12-29T08:58:34;3.13;;;2.50;;
37309;SDS011;23195;47.744;7.358;2023-12-29T09:01:05;3.27;;;2.40;;
37309;SDS011;23195;47.744;7.358;2023-12-29T09:03:34;4.63;;;3.20;;
37309;SDS011;23195;47.744;7.358;2023-12-29T09:06:00;3.73;;;3.30;;
37309;SDS011;23195;47.744;7.358;2023-12-29T09:08:26;4.60;;;3.40;;
37309;SDS011;23195;47.744;7.358;2023-12-29T09:10:52;3.67;;;3.20;;
37309;SDS011;23195;47.744;7.358;2023-12-29T09:13:20;5.27;;;3.57;;
37309;SDS011;23195;47.744;7.358;2023-12-29T09:15:50;4.73;;;3.37;;
37309;SDS011;23195;47.744;7.358;2023-12-29T09:18:16;4.13;;;3.67;;
37309;SDS011;23195;47.744;7.358;2023-12-29T09:20:42;5.27;;;4.07;;
37309;SDS011;23195;47.744;7.358;2023-12-29T09:23:08;6.37;;;3.50;;
37309;SDS011;23195;47.744;7.358;2023-12-29T09:25:34;5.97;;;3.40;;
37309;SDS011;23195;47.744;7.358;2023-12-29T09:28:05;4.77;;;3.70;;
37309;SDS011;23195;47.744;7.358;2023-12-29T09:30:33;6.90;;;4.00;;
37309;SDS011;23195;47.744;7.358;2023-12-29T09:33:02;4.67;;;3.73;;
37309;SDS011;23195;47.744;7.358;2023-12-29T09:35:28;5.07;;;3.43;;
37309;SDS011;23195;47.744;7.358;2023-12-29T09:37:54;4.03;;;3.57;;
37309;SDS011;23195;47.744;7.358;2023-12-29T09:40:29;4.67;;;3.73;;
37309;SDS011;23195;47.744;7.358;2023-12-29T09:42:55;4.13;;;3.27;;
37309;SDS011;23195;47.744;7.358;2023-12-29T09:45:22;4.70;;;3.60;;
37309;SDS011;23195;47.744;7.358;2023-12-29T09:47:58;4.53;;;3.57;;
37309;SDS011;23195;47.744;7.358;2023-12-29T09:50:34;5.20;;;3.80;;
37309;SDS011;23195;47.744;7.358;2023-12-29T09:53:01;3.90;;;3.60;;
37309;SDS011;23195;47.744;7.358;2023-12-29T09:55:27;3.60;;;3.30;;
37309;SDS011;23195;47.744;7.358;2023-12-29T09:57:54;4.63;;;3.73;;
37309;SDS011;23195;47.744;7.358;2023-12-29T10:00:22;3.70;;;3.30;;
37309;SDS011;23195;47.744;7.358;2023-12-29T10:02:50;5.07;;;3.63;;
37309;SDS011;23195;47.744;7.358;2023-12-29T10:05:19;3.83;;;3.20;;
37309;SDS011;23195;47.744;7.358;2023-12-29T10:07:45;3.63;;;3.10;;
37309;SDS011;23195;47.744;7.358;2023-12-29T10:10:18;5.13;;;2.90;;
37309;SDS011;23195;47.744;7.358;2023-12-29T10:12:48;3.60;;;3.03;;
37309;SDS011;23195;47.744;7.358;2023-12-29T10:15:28;6.10;;;3.50;;
37309;SDS011;23195;47.744;7.358;2023-12-29T10:21:12;4.30;;;3.07;;
37309;SDS011;23195;47.744;7.358;2023-12-29T10:27:08;3.43;;;2.70;;
37309;SDS011;23195;47.744;7.358;2023-12-29T10:29:34;5.37;;;3.07;;
37309;SDS011;23195;47.744;7.358;2023-12-29T10:32:23;3.77;;;2.97;;
37309;SDS011;23195;47.744;7.358;2023-12-29T10:34:51;4.47;;;3.03;;
37309;SDS011;23195;47.744;7.358;2023-12-29T10:37:41;2.97;;;2.67;;
37309;SDS011;23195;47.744;7.358;2023-12-29T10:40:07;4.07;;;2.90;;
37309;SDS011;23195;47.744;7.358;2023-12-29T10:42:36;2.93;;;2.50;;
37309;SDS011;23195;47.744;7.358;2023-12-29T10:45:42;2.97;;;2.67;;
37309;SDS011;23195;47.744;7.358;2023-12-29T10:48:08;3.60;;;2.60;;
37309;SDS011;23195;47.744;7.358;2023-12-29T10:50:46;3.17;;;2.57;;
37309;SDS011;23195;47.744;7.358;2023-12-29T10:53:14;3.23;;;2.57;;
37309;SDS011;23195;47.744;7.358;2023-12-29T10:55:43;3.70;;;3.20;;
37309;SDS011;23195;47.744;7.358;2023-12-29T10:58:09;3.30;;;2.60;;
37309;SDS011;23195;47.744;7.358;2023-12-29T11:00:44;4.93;;;3.20;;
37309;SDS011;23195;47.744;7.358;2023-12-29T11:03:14;3.50;;;2.97;;
37309;SDS011;23195;47.744;7.358;2023-12-29T11:05:43;4.13;;;2.73;;
37309;SDS011;23195;47.744;7.358;2023-12-29T11:08:16;3.23;;;2.93;;
37309;SDS011;23195;47.744;7.358;2023-12-29T11:10:47;3.53;;;3.20;;
37309;SDS011;23195;47.744;7.358;2023-12-29T11:13:18;5.30;;;3.23;;
37309;SDS011;23195;47.744;7.358;2023-12-29T11:15:44;3.27;;;2.63;;
37309;SDS011;23195;47.744;7.358;2023-12-29T11:18:15;3.23;;;2.93;;
37309;SDS011;23195;47.744;7.358;2023-12-29T11:20:43;3.83;;;2.83;;
37309;SDS011;23195;47.744;7.358;2023-12-29T11:23:15;4.77;;;3.20;;
37309;SDS011;23195;47.744;7.358;2023-12-29T11:25:43;3.27;;;2.40;;
37309;SDS011;23195;47.744;7.358;2023-12-29T11:28:17;2.70;;;2.10;;
37309;SDS011;23195;47.744;7.358;2023-12-29T11:30:44;3.00;;;2.30;;
37309;SDS011;23195;47.744;7.358;2023-12-29T11:36:13;3.33;;;2.50;;
37309;SDS011;23195;47.744;7.358;2023-12-29T11:39:06;3.37;;;2.30;;
37309;SDS011;23195;47.744;7.358;2023-12-29T11:41:43;4.27;;;2.20;;
37309;SDS011;23195;47.744;7.358;2023-12-29T11:44:17;4.00;;;2.17;;
37309;SDS011;23195;47.744;7.358;2023-12-29T11:46:52;3.00;;;2.10;;
37309;SDS011;23195;47.744;7.358;2023-12-29T11:49:23;2.83;;;2.03;;
37309;SDS011;23195;47.744;7.358;2023-12-29T11:51:51;4.03;;;2.70;;
37309;SDS011;23195;47.744;7.358;2023-12-29T11:54:26;4.43;;;2.60;;
37309;SDS011;23195;47.744;7.358;2023-12-29T11:56:55;3.97;;;2.60;;
37309;SDS011;23195;47.744;7.358;2023-12-29T11:59:25;3.43;;;2.47;;
37309;SDS011;23195;47.744;7.358;2023-12-29T12:01:54;5.50;;;2.63;;
37309;SDS011;23195;47.744;7.358;2023-12-29T12:04:38;3.23;;;2.70;;
37309;SDS011;23195;47.744;7.358;2023-12-29T12:10:51;4.10;;;2.50;;
37309;SDS011;23195;47.744;7.358;2023-12-29T12:12:55;4.10;;;3.33;;
37309;SDS011;23195;47.744;7.358;2023-12-29T12:17:58;3.70;;;2.40;;
37309;SDS011;23195;47.744;7.358;2023-12-29T12:20:35;4.37;;;3.13;;
37309;SDS011;23195;47.744;7.358;2023-12-29T12:25:46;3.50;;;2.80;;
37309;SDS011;23195;47.744;7.358;2023-12-29T12:28:20;4.53;;;2.60;;
37309;SDS011;23195;47.744;7.358;2023-12-29T12:30:47;4.50;;;3.10;;
37309;SDS011;23195;47.744;7.358;2023-12-29T12:33:18;4.10;;;2.70;;
37309;SDS011;23195;47.744;7.358;2023-12-29T12:35:44;3.57;;;2.80;;
37309;SDS011;23195;47.744;7.358;2023-12-29T12:41:42;4.97;;;2.73;;
37309;SDS011;23195;47.744;7.358;2023-12-29T12:44:14;6.50;;;3.90;;
37309;SDS011;23195;47.744;7.358;2023-12-29T12:46:41;3.77;;;2.80;;
37309;SDS011;23195;47.744;7.358;2023-12-29T12:49:17;3.40;;;2.80;;
37309;SDS011;23195;47.744;7.358;2023-12-29T12:51:43;6.20;;;3.67;;
37309;SDS011;23195;47.744;7.358;2023-12-29T12:54:17;5.00;;;3.40;;
37309;SDS011;23195;47.744;7.358;2023-12-29T12:56:47;4.50;;;3.40;;
37309;SDS011;23195;47.744;7.358;2023-12-29T12:59:16;4.80;;;3.00;;
37309;SDS011;23195;47.744;7.358;2023-12-29T13:01:42;4.80;;;3.57;;
37309;SDS011;23195;47.744;7.358;2023-12-29T13:04:53;6.97;;;3.30;;
37309;SDS011;23195;47.744;7.358;2023-12-29T13:07:23;3.70;;;3.07;;
37309;SDS011;23195;47.744;7.358;2023-12-29T13:13:05;2.83;;;2.63;;
37309;SDS011;23195;47.744;7.358;2023-12-29T13:15:50;4.00;;;3.40;;
37309;SDS011;23195;47.744;7.358;2023-12-29T13:18:28;6.07;;;3.30;;
37309;SDS011;23195;47.744;7.358;2023-12-29T13:20:57;4.13;;;2.77;;
37309;SDS011;23195;47.744;7.358;2023-12-29T13:23:26;3.30;;;2.90;;
37309;SDS011;23195;47.744;7.358;2023-12-29T13:26:02;4.53;;;3.03;;
37309;SDS011;23195;47.744;7.358;2023-12-29T13:28:32;3.33;;;3.03;;
37309;SDS011;23195;47.744;7.358;2023-12-29T13:30:59;3.90;;;3.30;;
37309;SDS011;23195;47.744;7.358;2023-12-29T13:33:34;3.90;;;2.97;;
37309;SDS011;23195;47.744;7.358;2023-12-29T13:36:26;3.70;;;2.90;;
37309;SDS011;23195;47.744;7.358;2023-12-29T13:39:09;3.87;;;3.03;;
37309;SDS011;23195;47.744;7.358;2023-12-29T13:42:01;6.17;;;3.70;;
37309;SDS011;23195;47.744;7.358;2023-12-29T13:44:30;4.27;;;3.50;;
37309;SDS011;23195;47.744;7.358;2023-12-29T13:47:00;4.40;;;3.20;;
37309;SDS011;23195;47.744;7.358;2023-12-29T13:49:26;4.30;;;2.87;;
37309;SDS011;23195;47.744;7.358;2023-12-29T13:51:52;4.77;;;2.90;;
37309;SDS011;23195;47.744;7.358;2023-12-29T13:54:18;4.13;;;3.00;;
37309;SDS011;23195;47.744;7.358;2023-12-29T13:56:51;4.40;;;3.07;;
37309;SDS011;23195;47.744;7.358;2023-12-29T13:59:28;3.50;;;3.03;;
37309;SDS011;23195;47.744;7.358;2023-12-29T14:01:59;5.80;;;3.33;;
37309;SDS011;23195;47.744;7.358;2023-12-29T14:04:46;8.43;;;4.90;;
37309;SDS011;23195;47.744;7.358;2023-12-29T14:07:15;12.40;;;4.87;;
37309;SDS011;23195;47.744;7.358;2023-12-29T14:09:53;5.57;;;3.80;;
37309;SDS011;23195;47.744;7.358;2023-12-29T14:12:25;7.50;;;4.63;;
37309;SDS011;23195;47.744;7.358;2023-12-29T14:14:53;8.27;;;4.30;;
37309;SDS011;23195;47.744;7.358;2023-12-29T14:17:27;5.53;;;3.90;;
37309;SDS011;23195;47.744;7.358;2023-12-29T14:19:54;4.80;;;3.23;;
37309;SDS011;23195;47.744;7.358;2023-12-29T14:22:23;5.63;;;3.63;;
37309;SDS011;23195;47.744;7.358;2023-12-29T14:27:51;4.07;;;3.30;;
37309;SDS011;23195;47.744;7.358;2023-12-29T14:30:22;4.47;;;3.33;;
37309;SDS011;23195;47.744;7.358;2023-12-29T14:32:48;4.20;;;3.03;;
37309;SDS011;23195;47.744;7.358;2023-12-29T14:35:14;3.03;;;2.73;;
37309;SDS011;23195;47.744;7.358;2023-12-29T14:37:43;4.33;;;2.70;;
37309;SDS011;23195;47.744;7.358;2023-12-29T14:40:10;4.47;;;3.30;;
37309;SDS011;23195;47.744;7.358;2023-12-29T14:42:36;3.27;;;2.80;;
37309;SDS011;23195;47.744;7.358;2023-12-29T14:45:05;5.90;;;3.43;;
37309;SDS011;23195;47.744;7.358;2023-12-29T14:47:34;5.40;;;3.60;;
37309;SDS011;23195;47.744;7.358;2023-12-29T14:50:03;4.87;;;3.50;;
37309;SDS011;23195;47.744;7.358;2023-12-29T14:52:30;5.87;;;3.43;;
37309;SDS011;23195;47.744;7.358;2023-12-29T14:54:55;3.43;;;3.00;;
37309;SDS011;23195;47.744;7.358;2023-12-29T14:57:24;4.63;;;3.50;;
37309;SDS011;23195;47.744;7.358;2023-12-29T14:59:53;3.93;;;2.90;;
37309;SDS011;23195;47.744;7.358;2023-12-29T15:02:19;4.07;;;3.00;;
37309;SDS011;23195;47.744;7.358;2023-12-29T15:04:48;4.67;;;2.83;;
37309;SDS011;23195;47.744;7.358;2023-12-29T15:07:21;4.03;;;3.10;;
37309;SDS011;23195;47.744;7.358;2023-12-29T15:09:53;3.03;;;2.57;;
37309;SDS011;23195;47.744;7.358;2023-12-29T15:12:19;4.40;;;2.97;;
37309;SDS011;23195;47.744;7.358;2023-12-29T15:14:44;3.40;;;3.10;;
37309;SDS011;23195;47.744;7.358;2023-12-29T15:17:13;4.70;;;3.03;;
37309;SDS011;23195;47.744;7.358;2023-12-29T15:19:59;4.10;;;2.80;;
37309;SDS011;23195;47.744;7.358;2023-12-29T15:22:28;5.10;;;3.33;;
37309;SDS011;23195;47.744;7.358;2023-12-29T15:24:54;3.67;;;2.60;;
37309;SDS011;23195;47.744;7.358;2023-12-29T15:27:26;4.03;;;2.93;;
37309;SDS011;23195;47.744;7.358;2023-12-29T15:29:54;3.57;;;3.20;;
37309;SDS011;23195;47.744;7.358;2023-12-29T15:32:20;5.23;;;3.40;;
37309;SDS011;23195;47.744;7.358;2023-12-29T15:35:08;4.43;;;2.57;;
37309;SDS011;23195;47.744;7.358;2023-12-29T15:38:01;4.37;;;2.67;;
37309;SDS011;23195;47.744;7.358;2023-12-29T15:40:27;3.70;;;2.90;;
37309;SDS011;23195;47.744;7.358;2023-12-29T15:42:53;3.57;;;3.03;;
37309;SDS011;23195;47.744;7.358;2023-12-29T15:48:51;4.70;;;3.30;;
37309;SDS011;23195;47.744;7.358;2023-12-29T15:51:36;4.43;;;2.97;;
37309;SDS011;23195;47.744;7.358;2023-12-29T15:54:04;4.30;;;3.20;;
37309;SDS011;23195;47.744;7.358;2023-12-29T15:56:40;3.80;;;2.80;;
37309;SDS011;23195;47.744;7.358;2023-12-29T15:59:15;3.93;;;2.90;;
37309;SDS011;23195;47.744;7.358;2023-12-29T16:01:43;2.80;;;2.40;;
37309;SDS011;23195;47.744;7.358;2023-12-29T16:04:26;3.73;;;2.80;;
37309;SDS011;23195;47.744;7.358;2023-12-29T16:06:55;3.23;;;2.63;;
37309;SDS011;23195;47.744;7.358;2023-12-29T16:09:24;4.10;;;2.70;;
37309;SDS011;23195;47.744;7.358;2023-12-29T16:11:55;4.43;;;2.73;;
37309;SDS011;23195;47.744;7.358;2023-12-29T16:14:21;3.53;;;2.83;;
37309;SDS011;23195;47.744;7.358;2023-12-29T16:19:48;7.03;;;3.57;;
37309;SDS011;23195;47.744;7.358;2023-12-29T16:22:16;5.53;;;3.67;;
37309;SDS011;23195;47.744;7.358;2023-12-29T16:24:42;3.97;;;3.10;;
37309;SDS011;23195;47.744;7.358;2023-12-29T16:27:18;4.53;;;3.20;;
37309;SDS011;23195;47.744;7.358;2023-12-29T16:29:43;3.97;;;3.47;;
37309;SDS011;23195;47.744;7.358;2023-12-29T16:32:22;3.83;;;3.33;;
37309;SDS011;23195;47.744;7.358;2023-12-29T16:35:02;4.63;;;3.07;;
37309;SDS011;23195;47.744;7.358;2023-12-29T16:37:28;3.93;;;2.97;;
37309;SDS011;23195;47.744;7.358;2023-12-29T16:40:10;4.17;;;3.03;;
37309;SDS011;23195;47.744;7.358;2023-12-29T16:42:36;4.00;;;2.90;;
37309;SDS011;23195;47.744;7.358;2023-12-29T16:45:02;3.67;;;3.03;;
37309;SDS011;23195;47.744;7.358;2023-12-29T16:47:39;4.90;;;3.43;;
37309;SDS011;23195;47.744;7.358;2023-12-29T16:50:08;3.87;;;3.10;;
37309;SDS011;23195;47.744;7.358;2023-12-29T16:52:34;4.37;;;3.57;;
37309;SDS011;23195;47.744;7.358;2023-12-29T16:55:05;3.87;;;3.00;;
37309;SDS011;23195;47.744;7.358;2023-12-29T16:57:44;4.50;;;3.27;;
37309;SDS011;23195;47.744;7.358;2023-12-29T17:00:13;6.17;;;3.13;;
37309;SDS011;23195;47.744;7.358;2023-12-29T17:02:42;4.30;;;3.30;;
37309;SDS011;23195;47.744;7.358;2023-12-29T17:05:10;4.67;;;3.20;;
37309;SDS011;23195;47.744;7.358;2023-12-29T17:07:36;4.37;;;2.73;;
37309;SDS011;23195;47.744;7.358;2023-12-29T17:10:10;3.80;;;3.00;;
37309;SDS011;23195;47.744;7.358;2023-12-29T17:12:40;6.00;;;3.07;;
37309;SDS011;23195;47.744;7.358;2023-12-29T17:15:11;4.50;;;3.20;;
37309;SDS011;23195;47.744;7.358;2023-12-29T17:17:37;5.40;;;3.00;;
37309;SDS011;23195;47.744;7.358;2023-12-29T17:20:30;3.57;;;2.90;;
37309;SDS011;23195;47.744;7.358;2023-12-29T17:22:58;3.67;;;2.73;;
37309;SDS011;23195;47.744;7.358;2023-12-29T17:25:41;4.30;;;3.20;;
37309;SDS011;23195;47.744;7.358;2023-12-29T17:28:07;6.67;;;3.17;;
37309;SDS011;23195;47.744;7.358;2023-12-29T17:30:33;4.73;;;3.20;;
37309;SDS011;23195;47.744;7.358;2023-12-29T17:32:58;5.10;;;4.07;;
37309;SDS011;23195;47.744;7.358;2023-12-29T17:35:33;5.37;;;3.80;;
37309;SDS011;23195;47.744;7.358;2023-12-29T17:38:07;7.37;;;4.00;;
37309;SDS011;23195;47.744;7.358;2023-12-29T17:40:32;9.13;;;4.40;;
37309;SDS011;23195;47.744;7.358;2023-12-29T17:42:59;7.53;;;5.03;;
37309;SDS011;23195;47.744;7.358;2023-12-29T17:45:36;5.83;;;3.70;;
37309;SDS011;23195;47.744;7.358;2023-12-29T17:48:02;6.10;;;3.93;;
37309;SDS011;23195;47.744;7.358;2023-12-29T17:50:28;6.77;;;4.10;;
37309;SDS011;23195;47.744;7.358;2023-12-29T17:52:54;8.40;;;4.60;;
37309;SDS011;23195;47.744;7.358;2023-12-29T17:55:20;5.83;;;3.80;;
37309;SDS011;23195;47.744;7.358;2023-12-29T17:57:50;6.10;;;4.30;;
37309;SDS011;23195;47.744;7.358;2023-12-29T18:00:16;6.60;;;4.17;;
37309;SDS011;23195;47.744;7.358;2023-12-29T18:02:42;7.57;;;4.10;;
37309;SDS011;23195;47.744;7.358;2023-12-29T18:05:08;6.87;;;4.27;;
37309;SDS011;23195;47.744;7.358;2023-12-29T18:07:34;7.13;;;5.60;;
37309;SDS011;23195;47.744;7.358;2023-12-29T18:09:59;6.67;;;4.27;;
37309;SDS011;23195;47.744;7.358;2023-12-29T18:12:37;7.90;;;5.37;;
37309;SDS011;23195;47.744;7.358;2023-12-29T18:15:03;7.17;;;5.33;;
37309;SDS011;23195;47.744;7.358;2023-12-29T18:17:29;7.17;;;5.17;;
37309;SDS011;23195;47.744;7.358;2023-12-29T18:20:02;7.13;;;5.00;;
37309;SDS011;23195;47.744;7.358;2023-12-29T18:22:31;8.33;;;4.67;;
37309;SDS011;23195;47.744;7.358;2023-12-29T18:24:57;8.17;;;5.10;;
37309;SDS011;23195;47.744;7.358;2023-12-29T18:27:25;6.87;;;4.80;;
37309;SDS011;23195;47.744;7.358;2023-12-29T18:29:57;7.70;;;5.90;;
37309;SDS011;23195;47.744;7.358;2023-12-29T18:32:28;8.50;;;4.80;;
37309;SDS011;23195;47.744;7.358;2023-12-29T18:34:57;7.67;;;4.87;;
37309;SDS011;23195;47.744;7.358;2023-12-29T18:37:22;10.50;;;4.90;;
37309;SDS011;23195;47.744;7.358;2023-12-29T18:39:53;6.53;;;4.87;;
37309;SDS011;23195;47.744;7.358;2023-12-29T18:42:19;7.67;;;5.00;;
37309;SDS011;23195;47.744;7.358;2023-12-29T18:44:48;7.53;;;4.63;;
37309;SDS011;23195;47.744;7.358;2023-12-29T18:47:19;6.23;;;4.67;;
37309;SDS011;23195;47.744;7.358;2023-12-29T18:49:47;5.60;;;4.57;;
37309;SDS011;23195;47.744;7.358;2023-12-29T18:52:21;7.83;;;4.70;;
37309;SDS011;23195;47.744;7.358;2023-12-29T18:55:07;6.37;;;4.80;;
37309;SDS011;23195;47.744;7.358;2023-12-29T18:57:36;7.13;;;4.47;;
37309;SDS011;23195;47.744;7.358;2023-12-29T19:00:02;6.10;;;4.57;;
37309;SDS011;23195;47.744;7.358;2023-12-29T19:02:29;6.03;;;4.37;;
37309;SDS011;23195;47.744;7.358;2023-12-29T19:04:55;18.13;;;4.93;;
37309;SDS011;23195;47.744;7.358;2023-12-29T19:07:21;7.27;;;4.70;;
37309;SDS011;23195;47.744;7.358;2023-12-29T19:09:50;10.50;;;5.30;;
37309;SDS011;23195;47.744;7.358;2023-12-29T19:12:16;9.93;;;5.60;;
37309;SDS011;23195;47.744;7.358;2023-12-29T19:14:50;6.27;;;4.90;;
37309;SDS011;23195;47.744;7.358;2023-12-29T19:17:20;10.93;;;6.33;;
37309;SDS011;23195;47.744;7.358;2023-12-29T19:19:56;10.40;;;6.23;;
37309;SDS011;23195;47.744;7.358;2023-12-29T19:22:25;10.93;;;6.83;;
37309;SDS011;23195;47.744;7.358;2023-12-29T19:25:04;11.03;;;7.30;;
37309;SDS011;23195;47.744;7.358;2023-12-29T19:27:30;10.67;;;7.20;;
37309;SDS011;23195;47.744;7.358;2023-12-29T19:30:02;9.03;;;6.40;;
37309;SDS011;23195;47.744;7.358;2023-12-29T19:32:28;8.37;;;6.80;;
37309;SDS011;23195;47.744;7.358;2023-12-29T19:34:56;12.90;;;8.03;;
37309;SDS011;23195;47.744;7.358;2023-12-29T19:37:45;10.93;;;7.40;;
37309;SDS011;23195;47.744;7.358;2023-12-29T19:40:23;8.37;;;6.50;;
37309;SDS011;23195;47.744;7.358;2023-12-29T19:42:58;10.43;;;7.57;;
37309;SDS011;23195;47.744;7.358;2023-12-29T19:45:24;11.23;;;6.87;;
37309;SDS011;23195;47.744;7.358;2023-12-29T19:48:03;8.97;;;6.73;;
37309;SDS011;23195;47.744;7.358;2023-12-29T19:50:32;10.97;;;6.97;;
37309;SDS011;23195;47.744;7.358;2023-12-29T19:56:10;8.27;;;6.27;;
37309;SDS011;23195;47.744;7.358;2023-12-29T20:05:10;7.67;;;5.27;;
37309;SDS011;23195;47.744;7.358;2023-12-29T20:11:15;6.60;;;5.23;;
37309;SDS011;23195;47.744;7.358;2023-12-29T20:13:42;10.10;;;5.27;;
37309;SDS011;23195;47.744;7.358;2023-12-29T20:16:22;9.73;;;5.93;;
37309;SDS011;23195;47.744;7.358;2023-12-29T20:18:59;8.23;;;5.67;;
37309;SDS011;23195;47.744;7.358;2023-12-29T20:21:34;6.73;;;5.00;;
37309;SDS011;23195;47.744;7.358;2023-12-29T20:24:00;9.83;;;5.50;;
37309;SDS011;23195;47.744;7.358;2023-12-29T20:26:40;7.30;;;5.00;;
37309;SDS011;23195;47.744;7.358;2023-12-29T20:29:06;7.60;;;4.97;;
37309;SDS011;23195;47.744;7.358;2023-12-29T20:31:32;8.73;;;5.10;;
37309;SDS011;23195;47.744;7.358;2023-12-29T20:33:59;7.20;;;5.50;;
37309;SDS011;23195;47.744;7.358;2023-12-29T20:36:26;7.53;;;5.00;;
37309;SDS011;23195;47.744;7.358;2023-12-29T20:38:54;8.67;;;6.00;;
37309;SDS011;23195;47.744;7.358;2023-12-29T20:41:21;7.90;;;5.60;;
37309;SDS011;23195;47.744;7.358;2023-12-29T20:43:51;7.07;;;5.03;;
37309;SDS011;23195;47.744;7.358;2023-12-29T20:46:18;7.43;;;5.43;;
37309;SDS011;23195;47.744;7.358;2023-12-29T20:48:44;8.60;;;5.87;;
37309;SDS011;23195;47.744;7.358;2023-12-29T20:51:14;7.60;;;5.00;;
37309;SDS011;23195;47.744;7.358;2023-12-29T20:53:47;8.03;;;5.30;;
37309;SDS011;23195;47.744;7.358;2023-12-29T20:56:17;7.80;;;5.10;;
37309;SDS011;23195;47.744;7.358;2023-12-29T20:58:46;8.17;;;5.30;;
37309;SDS011;23195;47.744;7.358;2023-12-29T21:01:14;7.37;;;5.67;;
37309;SDS011;23195;47.744;7.358;2023-12-29T21:03:46;7.73;;;5.40;;
37309;SDS011;23195;47.744;7.358;2023-12-29T21:06:15;7.60;;;5.47;;
37309;SDS011;23195;47.744;7.358;2023-12-29T21:08:45;8.60;;;6.47;;
37309;SDS011;23195;47.744;7.358;2023-12-29T21:11:18;8.83;;;5.60;;
37309;SDS011;23195;47.744;7.358;2023-12-29T21:13:47;9.27;;;5.57;;
37309;SDS011;23195;47.744;7.358;2023-12-29T21:16:16;8.90;;;5.00;;
37309;SDS011;23195;47.744;7.358;2023-12-29T21:18:46;6.10;;;5.00;;
37309;SDS011;23195;47.744;7.358;2023-12-29T21:21:16;6.90;;;5.23;;
37309;SDS011;23195;47.744;7.358;2023-12-29T21:23:45;7.20;;;4.70;;
37309;SDS011;23195;47.744;7.358;2023-12-29T21:26:22;9.23;;;5.40;;
37309;SDS011;23195;47.744;7.358;2023-12-29T21:28:58;7.53;;;5.37;;
37309;SDS011;23195;47.744;7.358;2023-12-29T21:31:27;7.77;;;5.37;;
37309;SDS011;23195;47.744;7.358;2023-12-29T21:34:00;8.03;;;5.10;;
37309;SDS011;23195;47.744;7.358;2023-12-29T21:36:29;7.43;;;4.73;;
37309;SDS011;23195;47.744;7.358;2023-12-29T21:39:00;8.37;;;5.93;;
37309;SDS011;23195;47.744;7.358;2023-12-29T21:41:30;8.23;;;5.70;;
37309;SDS011;23195;47.744;7.358;2023-12-29T21:44:09;7.97;;;5.70;;
37309;SDS011;23195;47.744;7.358;2023-12-29T21:46:39;8.47;;;5.43;;
37309;SDS011;23195;47.744;7.358;2023-12-29T21:49:10;8.83;;;5.00;;
37309;SDS011;23195;47.744;7.358;2023-12-29T21:51:36;8.13;;;5.70;;
37309;SDS011;23195;47.744;7.358;2023-12-29T21:54:06;6.80;;;5.37;;
37309;SDS011;23195;47.744;7.358;2023-12-29T21:56:35;6.97;;;5.20;;
37309;SDS011;23195;47.744;7.358;2023-12-29T21:59:00;8.63;;;6.00;;
37309;SDS011;23195;47.744;7.358;2023-12-29T22:01:36;9.30;;;5.83;;
37309;SDS011;23195;47.744;7.358;2023-12-29T22:04:03;8.27;;;5.63;;
37309;SDS011;23195;47.744;7.358;2023-12-29T22:06:31;8.73;;;5.77;;
37309;SDS011;23195;47.744;7.358;2023-12-29T22:09:03;7.63;;;5.57;;
37309;SDS011;23195;47.744;7.358;2023-12-29T22:11:34;7.27;;;5.63;;
37309;SDS011;23195;47.744;7.358;2023-12-29T22:14:03;12.13;;;5.10;;
37309;SDS011;23195;47.744;7.358;2023-12-29T22:16:32;6.77;;;4.70;;
37309;SDS011;23195;47.744;7.358;2023-12-29T22:18:58;6.90;;;5.03;;
37309;SDS011;23195;47.744;7.358;2023-12-29T22:21:24;8.67;;;5.17;;
37309;SDS011;23195;47.744;7.358;2023-12-29T22:27:03;10.40;;;5.47;;
37309;SDS011;23195;47.744;7.358;2023-12-29T22:32:37;7.53;;;4.47;;
37309;SDS011;23195;47.744;7.358;2023-12-29T22:35:09;6.50;;;4.27;;
37309;SDS011;23195;47.744;7.358;2023-12-29T22:37:52;7.03;;;4.60;;
37309;SDS011;23195;47.744;7.358;2023-12-29T22:40:28;8.57;;;5.00;;
37309;SDS011;23195;47.744;7.358;2023-12-29T22:43:13;7.10;;;4.50;;
37309;SDS011;23195;47.744;7.358;2023-12-29T22:45:50;9.17;;;5.03;;
37309;SDS011;23195;47.744;7.358;2023-12-29T22:48:16;9.03;;;5.30;;
37309;SDS011;23195;47.744;7.358;2023-12-29T22:50:47;7.93;;;5.37;;
37309;SDS011;23195;47.744;7.358;2023-12-29T22:53:16;9.83;;;5.13;;
37309;SDS011;23195;47.744;7.358;2023-12-29T22:55:47;7.57;;;5.00;;
37309;SDS011;23195;47.744;7.358;2023-12-29T22:58:23;9.90;;;4.40;;